Terminal Aerodrome Forecast
Issued by NWS Boston, MA

Current Version | Previous Version | Text Only | Print | Product List | Glossary On
Versions: 1 2 3 4 5 6 7 8 9 10 11 12 13 14 15 16 17 18 19 20 21 22
000
FTUS41 KBOX 231935 AAA
TAFORH
TAF AMD
KORH 231935Z 2320/2418 01014G22KT 2SM SHRA BR BKN005 OVC015
     FM232200 01015G25KT P6SM OVC007
     FM240200 01016G29KT P6SM OVC003
     FM241000 34010G22KT P6SM OVC008
     FM241400 32008KT P6SM OVC015
     FM241700 32009KT P6SM OVC030=

USA.gov is the U.S. government's official web portal to all federal, state and local government web resources and services.